sensor_id;sensor_type;location;lat;lon;timestamp;P1;durP1;ratioP1;P2;durP2;ratioP2
37847;SDS011;23688;33.130;-117.188;2022-12-05T00:02:22;1.02;;;0.95;;
37847;SDS011;23688;33.130;-117.188;2022-12-05T00:04:48;3.03;;;1.30;;
37847;SDS011;23688;33.130;-117.188;2022-12-05T00:07:15;2.65;;;1.30;;
37847;SDS011;23688;33.130;-117.188;2022-12-05T00:09:42;3.97;;;1.83;;
37847;SDS011;23688;33.130;-117.188;2022-12-05T00:12:08;4.05;;;1.10;;
37847;SDS011;23688;33.130;-117.188;2022-12-05T00:14:34;3.85;;;1.33;;
37847;SDS011;23688;33.130;-117.188;2022-12-05T00:17:00;3.08;;;1.50;;
37847;SDS011;23688;33.130;-117.188;2022-12-05T00:19:27;1.90;;;1.20;;
37847;SDS011;23688;33.130;-117.188;2022-12-05T00:21:53;2.13;;;1.33;;
37847;SDS011;23688;33.130;-117.188;2022-12-05T00:24:19;2.13;;;0.98;;
37847;SDS011;23688;33.130;-117.188;2022-12-05T00:26:46;4.50;;;1.52;;
37847;SDS011;23688;33.130;-117.188;2022-12-05T00:29:12;4.15;;;1.02;;
37847;SDS011;23688;33.130;-117.188;2022-12-05T00:31:38;2.10;;;0.98;;
37847;SDS011;23688;33.130;-117.188;2022-12-05T00:34:05;4.55;;;1.73;;
37847;SDS011;23688;33.130;-117.188;2022-12-05T00:36:32;3.95;;;1.45;;
37847;SDS011;23688;33.130;-117.188;2022-12-05T00:39:01;1.23;;;0.95;;
37847;SDS011;23688;33.130;-117.188;2022-12-05T00:41:32;2.25;;;1.00;;
37847;SDS011;23688;33.130;-117.188;2022-12-05T00:43:59;1.17;;;0.90;;
37847;SDS011;23688;33.130;-117.188;2022-12-05T00:46:27;0.95;;;0.95;;
37847;SDS011;23688;33.130;-117.188;2022-12-05T00:48:56;1.52;;;1.20;;
37847;SDS011;23688;33.130;-117.188;2022-12-05T00:51:24;3.92;;;1.20;;
37847;SDS011;23688;33.130;-117.188;2022-12-05T00:54:02;4.55;;;1.20;;
37847;SDS011;23688;33.130;-117.188;2022-12-05T00:56:31;4.70;;;1.00;;
37847;SDS011;23688;33.130;-117.188;2022-12-05T00:58:59;1.60;;;0.93;;
37847;SDS011;23688;33.130;-117.188;2022-12-05T01:01:28;2.63;;;0.70;;
37847;SDS011;23688;33.130;-117.188;2022-12-05T01:04:00;2.28;;;0.85;;
37847;SDS011;23688;33.130;-117.188;2022-12-05T01:06:30;1.10;;;0.57;;
37847;SDS011;23688;33.130;-117.188;2022-12-05T01:08:57;2.45;;;1.55;;
37847;SDS011;23688;33.130;-117.188;2022-12-05T01:11:23;1.90;;;1.00;;
37847;SDS011;23688;33.130;-117.188;2022-12-05T01:13:51;1.95;;;0.90;;
37847;SDS011;23688;33.130;-117.188;2022-12-05T01:16:19;2.85;;;0.93;;
37847;SDS011;23688;33.130;-117.188;2022-12-05T01:18:50;1.60;;;1.00;;
37847;SDS011;23688;33.130;-117.188;2022-12-05T01:21:17;2.75;;;0.90;;
37847;SDS011;23688;33.130;-117.188;2022-12-05T01:23:44;1.33;;;1.00;;
37847;SDS011;23688;33.130;-117.188;2022-12-05T01:26:11;2.17;;;0.98;;
37847;SDS011;23688;33.130;-117.188;2022-12-05T01:31:06;0.95;;;0.80;;
37847;SDS011;23688;33.130;-117.188;2022-12-05T01:33:35;0.93;;;0.70;;
37847;SDS011;23688;33.130;-117.188;2022-12-05T01:36:02;2.35;;;1.17;;
37847;SDS011;23688;33.130;-117.188;2022-12-05T01:38:28;1.20;;;0.90;;
37847;SDS011;23688;33.130;-117.188;2022-12-05T01:41:02;2.08;;;0.98;;
37847;SDS011;23688;33.130;-117.188;2022-12-05T01:43:29;1.95;;;1.02;;
37847;SDS011;23688;33.130;-117.188;2022-12-05T01:45:55;2.40;;;1.10;;
37847;SDS011;23688;33.130;-117.188;2022-12-05T01:48:32;2.40;;;1.08;;
37847;SDS011;23688;33.130;-117.188;2022-12-05T01:51:00;3.97;;;1.05;;
37847;SDS011;23688;33.130;-117.188;2022-12-05T01:53:27;2.50;;;1.58;;
37847;SDS011;23688;33.130;-117.188;2022-12-05T01:55:55;4.18;;;1.48;;
37847;SDS011;23688;33.130;-117.188;2022-12-05T01:58:22;4.88;;;1.27;;
37847;SDS011;23688;33.130;-117.188;2022-12-05T02:00:52;4.72;;;1.20;;
37847;SDS011;23688;33.130;-117.188;2022-12-05T02:03:18;1.20;;;1.00;;
37847;SDS011;23688;33.130;-117.188;2022-12-05T02:05:47;1.38;;;0.93;;
37847;SDS011;23688;33.130;-117.188;2022-12-05T02:08:15;2.08;;;1.10;;
37847;SDS011;23688;33.130;-117.188;2022-12-05T02:10:43;2.08;;;0.90;;
37847;SDS011;23688;33.130;-117.188;2022-12-05T02:16:04;1.00;;;0.90;;
37847;SDS011;23688;33.130;-117.188;2022-12-05T02:27:07;4.47;;;0.75;;
37847;SDS011;23688;33.130;-117.188;2022-12-05T02:29:41;4.95;;;2.10;;
37847;SDS011;23688;33.130;-117.188;2022-12-05T02:32:17;4.97;;;3.13;;
37847;SDS011;23688;33.130;-117.188;2022-12-05T02:35:11;3.35;;;2.40;;
37847;SDS011;23688;33.130;-117.188;2022-12-05T02:40:26;3.85;;;2.65;;
37847;SDS011;23688;33.130;-117.188;2022-12-05T02:45:38;5.85;;;1.92;;
37847;SDS011;23688;33.130;-117.188;2022-12-05T02:48:06;1.35;;;1.10;;
37847;SDS011;23688;33.130;-117.188;2022-12-05T02:50:35;2.85;;;1.50;;
37847;SDS011;23688;33.130;-117.188;2022-12-05T02:53:05;1.58;;;1.30;;
37847;SDS011;23688;33.130;-117.188;2022-12-05T02:55:36;3.50;;;1.55;;
37847;SDS011;23688;33.130;-117.188;2022-12-05T02:58:06;2.90;;;1.27;;
37847;SDS011;23688;33.130;-117.188;2022-12-05T03:00:41;2.50;;;1.20;;
37847;SDS011;23688;33.130;-117.188;2022-12-05T03:03:13;1.70;;;1.20;;
37847;SDS011;23688;33.130;-117.188;2022-12-05T03:08:20;2.15;;;1.23;;
37847;SDS011;23688;33.130;-117.188;2022-12-05T03:10:50;1.63;;;1.40;;
37847;SDS011;23688;33.130;-117.188;2022-12-05T03:13:31;8.07;;;2.03;;
37847;SDS011;23688;33.130;-117.188;2022-12-05T03:16:04;1.95;;;1.40;;
37847;SDS011;23688;33.130;-117.188;2022-12-05T03:18:49;6.43;;;4.47;;
37847;SDS011;23688;33.130;-117.188;2022-12-05T03:24:18;2.78;;;1.80;;
37847;SDS011;23688;33.130;-117.188;2022-12-05T03:26:49;2.05;;;1.20;;
37847;SDS011;23688;33.130;-117.188;2022-12-05T03:32:07;2.47;;;1.08;;
37847;SDS011;23688;33.130;-117.188;2022-12-05T03:40:23;4.68;;;3.35;;
37847;SDS011;23688;33.130;-117.188;2022-12-05T03:42:59;5.97;;;4.45;;
37847;SDS011;23688;33.130;-117.188;2022-12-05T03:45:35;7.60;;;3.05;;
37847;SDS011;23688;33.130;-117.188;2022-12-05T03:50:52;4.00;;;1.50;;
37847;SDS011;23688;33.130;-117.188;2022-12-05T03:53:27;2.42;;;1.63;;
37847;SDS011;23688;33.130;-117.188;2022-12-05T03:56:05;2.65;;;2.28;;
37847;SDS011;23688;33.130;-117.188;2022-12-05T03:58:36;3.47;;;1.80;;
37847;SDS011;23688;33.130;-117.188;2022-12-05T04:01:11;5.40;;;2.03;;
37847;SDS011;23688;33.130;-117.188;2022-12-05T04:03:42;2.33;;;1.73;;
37847;SDS011;23688;33.130;-117.188;2022-12-05T04:06:23;4.15;;;1.77;;
37847;SDS011;23688;33.130;-117.188;2022-12-05T04:09:01;6.82;;;1.63;;
37847;SDS011;23688;33.130;-117.188;2022-12-05T04:11:36;2.92;;;1.48;;
37847;SDS011;23688;33.130;-117.188;2022-12-05T04:14:10;3.95;;;1.50;;
37847;SDS011;23688;33.130;-117.188;2022-12-05T04:19:28;5.63;;;1.40;;
37847;SDS011;23688;33.130;-117.188;2022-12-05T04:22:33;5.10;;;1.45;;
37847;SDS011;23688;33.130;-117.188;2022-12-05T04:25:01;2.13;;;1.23;;
37847;SDS011;23688;33.130;-117.188;2022-12-05T04:36:20;5.28;;;2.45;;
37847;SDS011;23688;33.130;-117.188;2022-12-05T04:39:07;3.70;;;2.17;;
37847;SDS011;23688;33.130;-117.188;2022-12-05T04:41:40;5.00;;;3.10;;
37847;SDS011;23688;33.130;-117.188;2022-12-05T04:44:14;4.35;;;2.38;;
37847;SDS011;23688;33.130;-117.188;2022-12-05T04:46:43;3.38;;;1.60;;
37847;SDS011;23688;33.130;-117.188;2022-12-05T04:49:16;2.25;;;1.10;;
37847;SDS011;23688;33.130;-117.188;2022-12-05T04:51:48;3.53;;;2.38;;
37847;SDS011;23688;33.130;-117.188;2022-12-05T04:54:21;5.88;;;2.08;;
37847;SDS011;23688;33.130;-117.188;2022-12-05T04:57:01;2.45;;;1.20;;
37847;SDS011;23688;33.130;-117.188;2022-12-05T05:02:07;2.92;;;1.17;;
37847;SDS011;23688;33.130;-117.188;2022-12-05T05:04:35;3.08;;;2.20;;
37847;SDS011;23688;33.130;-117.188;2022-12-05T05:07:09;1.20;;;1.10;;
37847;SDS011;23688;33.130;-117.188;2022-12-05T05:09:37;1.80;;;1.10;;
37847;SDS011;23688;33.130;-117.188;2022-12-05T05:12:04;1.33;;;0.80;;
37847;SDS011;23688;33.130;-117.188;2022-12-05T05:14:31;1.40;;;0.70;;
37847;SDS011;23688;33.130;-117.188;2022-12-05T05:16:57;1.52;;;1.10;;
37847;SDS011;23688;33.130;-117.188;2022-12-05T05:19:24;4.30;;;1.23;;
37847;SDS011;23688;33.130;-117.188;2022-12-05T05:21:50;1.17;;;0.95;;
37847;SDS011;23688;33.130;-117.188;2022-12-05T05:24:17;2.08;;;1.00;;
37847;SDS011;23688;33.130;-117.188;2022-12-05T05:26:46;2.25;;;1.20;;
37847;SDS011;23688;33.130;-117.188;2022-12-05T05:29:13;0.98;;;0.80;;
37847;SDS011;23688;33.130;-117.188;2022-12-05T05:31:42;0.77;;;0.77;;
37847;SDS011;23688;33.130;-117.188;2022-12-05T05:34:09;2.92;;;1.27;;
37847;SDS011;23688;33.130;-117.188;2022-12-05T05:36:37;2.83;;;1.10;;
37847;SDS011;23688;33.130;-117.188;2022-12-05T05:39:04;3.17;;;1.70;;
37847;SDS011;23688;33.130;-117.188;2022-12-05T05:41:32;1.80;;;0.93;;
37847;SDS011;23688;33.130;-117.188;2022-12-05T05:44:00;1.88;;;0.90;;
37847;SDS011;23688;33.130;-117.188;2022-12-05T05:46:28;1.70;;;0.70;;
37847;SDS011;23688;33.130;-117.188;2022-12-05T05:48:57;2.10;;;0.60;;
37847;SDS011;23688;33.130;-117.188;2022-12-05T05:51:25;2.03;;;0.75;;
37847;SDS011;23688;33.130;-117.188;2022-12-05T05:53:53;2.00;;;0.47;;
37847;SDS011;23688;33.130;-117.188;2022-12-05T05:56:21;1.25;;;0.40;;
37847;SDS011;23688;33.130;-117.188;2022-12-05T05:58:47;1.60;;;0.40;;
37847;SDS011;23688;33.130;-117.188;2022-12-05T06:01:23;0.82;;;0.40;;
37847;SDS011;23688;33.130;-117.188;2022-12-05T06:03:49;0.70;;;0.70;;
37847;SDS011;23688;33.130;-117.188;2022-12-05T06:06:16;0.30;;;0.30;;
37847;SDS011;23688;33.130;-117.188;2022-12-05T06:08:43;0.85;;;0.22;;
37847;SDS011;23688;33.130;-117.188;2022-12-05T06:11:11;0.75;;;0.30;;
37847;SDS011;23688;33.130;-117.188;2022-12-05T06:13:48;1.75;;;0.25;;
37847;SDS011;23688;33.130;-117.188;2022-12-05T06:16:15;1.20;;;0.50;;
37847;SDS011;23688;33.130;-117.188;2022-12-05T06:18:42;1.00;;;0.40;;
37847;SDS011;23688;33.130;-117.188;2022-12-05T06:21:08;1.58;;;0.50;;
37847;SDS011;23688;33.130;-117.188;2022-12-05T06:23:36;0.47;;;0.35;;
37847;SDS011;23688;33.130;-117.188;2022-12-05T06:26:03;1.10;;;0.22;;
37847;SDS011;23688;33.130;-117.188;2022-12-05T06:28:31;1.63;;;0.70;;
37847;SDS011;23688;33.130;-117.188;2022-12-05T06:30:57;0.38;;;0.38;;
37847;SDS011;23688;33.130;-117.188;2022-12-05T06:33:24;1.27;;;0.40;;
37847;SDS011;23688;33.130;-117.188;2022-12-05T06:36:00;0.40;;;0.30;;
37847;SDS011;23688;33.130;-117.188;2022-12-05T06:38:27;0.82;;;0.55;;
37847;SDS011;23688;33.130;-117.188;2022-12-05T06:40:54;1.10;;;0.90;;
37847;SDS011;23688;33.130;-117.188;2022-12-05T06:43:20;1.77;;;1.10;;
37847;SDS011;23688;33.130;-117.188;2022-12-05T06:45:46;1.70;;;1.50;;
37847;SDS011;23688;33.130;-117.188;2022-12-05T06:48:12;1.98;;;1.05;;
37847;SDS011;23688;33.130;-117.188;2022-12-05T06:50:39;0.85;;;0.73;;
37847;SDS011;23688;33.130;-117.188;2022-12-05T06:53:11;0.82;;;0.50;;
37847;SDS011;23688;33.130;-117.188;2022-12-05T06:55:39;0.82;;;0.60;;
37847;SDS011;23688;33.130;-117.188;2022-12-05T06:58:05;1.23;;;0.60;;
37847;SDS011;23688;33.130;-117.188;2022-12-05T07:00:32;2.75;;;0.75;;
37847;SDS011;23688;33.130;-117.188;2022-12-05T07:03:16;0.80;;;0.40;;
37847;SDS011;23688;33.130;-117.188;2022-12-05T07:05:43;0.50;;;0.50;;
37847;SDS011;23688;33.130;-117.188;2022-12-05T07:08:09;1.13;;;0.50;;
37847;SDS011;23688;33.130;-117.188;2022-12-05T07:10:35;0.75;;;0.50;;
37847;SDS011;23688;33.130;-117.188;2022-12-05T07:13:02;0.60;;;0.50;;
37847;SDS011;23688;33.130;-117.188;2022-12-05T07:15:30;1.15;;;0.65;;
37847;SDS011;23688;33.130;-117.188;2022-12-05T07:17:56;0.45;;;0.40;;
37847;SDS011;23688;33.130;-117.188;2022-12-05T07:20:22;1.42;;;0.50;;
37847;SDS011;23688;33.130;-117.188;2022-12-05T07:22:49;1.27;;;0.65;;
37847;SDS011;23688;33.130;-117.188;2022-12-05T07:25:15;0.68;;;0.32;;
37847;SDS011;23688;33.130;-117.188;2022-12-05T07:27:41;3.60;;;0.82;;
37847;SDS011;23688;33.130;-117.188;2022-12-05T07:30:08;1.10;;;0.43;;
37847;SDS011;23688;33.130;-117.188;2022-12-05T07:32:34;1.10;;;0.30;;
37847;SDS011;23688;33.130;-117.188;2022-12-05T07:35:01;0.68;;;0.40;;
37847;SDS011;23688;33.130;-117.188;2022-12-05T07:37:27;1.23;;;0.50;;
37847;SDS011;23688;33.130;-117.188;2022-12-05T07:39:54;1.40;;;0.60;;
37847;SDS011;23688;33.130;-117.188;2022-12-05T07:42:20;0.40;;;0.20;;
37847;SDS011;23688;33.130;-117.188;2022-12-05T07:44:46;1.00;;;0.50;;
37847;SDS011;23688;33.130;-117.188;2022-12-05T07:47:13;0.45;;;0.30;;
37847;SDS011;23688;33.130;-117.188;2022-12-05T07:49:39;0.20;;;0.20;;
37847;SDS011;23688;33.130;-117.188;2022-12-05T07:52:05;1.10;;;0.30;;
37847;SDS011;23688;33.130;-117.188;2022-12-05T07:54:33;0.22;;;0.22;;
37847;SDS011;23688;33.130;-117.188;2022-12-05T07:57:00;1.13;;;0.60;;
37847;SDS011;23688;33.130;-117.188;2022-12-05T07:59:26;0.68;;;0.40;;
37847;SDS011;23688;33.130;-117.188;2022-12-05T08:01:52;1.08;;;0.68;;
37847;SDS011;23688;33.130;-117.188;2022-12-05T08:04:19;0.40;;;0.35;;
37847;SDS011;23688;33.130;-117.188;2022-12-05T08:06:45;0.43;;;0.22;;
37847;SDS011;23688;33.130;-117.188;2022-12-05T08:09:12;1.30;;;0.50;;
37847;SDS011;23688;33.130;-117.188;2022-12-05T08:11:41;0.68;;;0.60;;
37847;SDS011;23688;33.130;-117.188;2022-12-05T08:14:08;0.90;;;0.60;;
37847;SDS011;23688;33.130;-117.188;2022-12-05T08:16:36;3.38;;;0.80;;
37847;SDS011;23688;33.130;-117.188;2022-12-05T08:19:04;0.80;;;0.80;;
37847;SDS011;23688;33.130;-117.188;2022-12-05T08:21:33;1.10;;;1.02;;
37847;SDS011;23688;33.130;-117.188;2022-12-05T08:23:59;4.57;;;1.35;;
37847;SDS011;23688;33.130;-117.188;2022-12-05T08:28:56;2.20;;;1.90;;
37847;SDS011;23688;33.130;-117.188;2022-12-05T08:31:25;4.88;;;2.58;;
37847;SDS011;23688;33.130;-117.188;2022-12-05T08:33:55;3.65;;;2.60;;
37847;SDS011;23688;33.130;-117.188;2022-12-05T08:36:23;2.40;;;2.20;;
37847;SDS011;23688;33.130;-117.188;2022-12-05T08:38:54;5.40;;;2.50;;
37847;SDS011;23688;33.130;-117.188;2022-12-05T08:41:21;3.38;;;2.15;;
37847;SDS011;23688;33.130;-117.188;2022-12-05T08:43:53;4.35;;;2.85;;
37847;SDS011;23688;33.130;-117.188;2022-12-05T08:46:20;8.63;;;2.55;;
37847;SDS011;23688;33.130;-117.188;2022-12-05T08:48:46;4.68;;;3.17;;
37847;SDS011;23688;33.130;-117.188;2022-12-05T08:51:12;6.25;;;2.97;;
37847;SDS011;23688;33.130;-117.188;2022-12-05T08:53:39;3.50;;;2.58;;
37847;SDS011;23688;33.130;-117.188;2022-12-05T08:56:07;5.32;;;3.10;;
37847;SDS011;23688;33.130;-117.188;2022-12-05T08:58:35;3.33;;;2.92;;
37847;SDS011;23688;33.130;-117.188;2022-12-05T09:01:12;6.35;;;3.20;;
37847;SDS011;23688;33.130;-117.188;2022-12-05T09:03:40;3.13;;;2.50;;
37847;SDS011;23688;33.130;-117.188;2022-12-05T09:08:38;5.70;;;3.05;;
37847;SDS011;23688;33.130;-117.188;2022-12-05T09:11:05;9.10;;;3.38;;
37847;SDS011;23688;33.130;-117.188;2022-12-05T09:13:33;4.35;;;2.47;;
37847;SDS011;23688;33.130;-117.188;2022-12-05T09:16:13;3.95;;;2.63;;
37847;SDS011;23688;33.130;-117.188;2022-12-05T09:18:41;5.72;;;3.03;;
37847;SDS011;23688;33.130;-117.188;2022-12-05T09:21:09;5.30;;;3.00;;
37847;SDS011;23688;33.130;-117.188;2022-12-05T09:23:37;4.03;;;2.92;;
37847;SDS011;23688;33.130;-117.188;2022-12-05T09:26:05;6.00;;;4.40;;
37847;SDS011;23688;33.130;-117.188;2022-12-05T09:28:35;6.97;;;4.07;;
37847;SDS011;23688;33.130;-117.188;2022-12-05T09:31:02;4.53;;;3.40;;
37847;SDS011;23688;33.130;-117.188;2022-12-05T09:33:31;3.90;;;2.80;;
37847;SDS011;23688;33.130;-117.188;2022-12-05T09:36:10;4.25;;;2.85;;
37847;SDS011;23688;33.130;-117.188;2022-12-05T09:38:37;6.18;;;3.03;;
37847;SDS011;23688;33.130;-117.188;2022-12-05T09:47:27;3.28;;;1.88;;
37847;SDS011;23688;33.130;-117.188;2022-12-05T09:55:19;5.17;;;2.30;;
37847;SDS011;23688;33.130;-117.188;2022-12-05T09:57:48;2.67;;;1.60;;
37847;SDS011;23688;33.130;-117.188;2022-12-05T10:00:16;1.80;;;1.48;;
37847;SDS011;23688;33.130;-117.188;2022-12-05T10:06:31;2.78;;;1.70;;
37847;SDS011;23688;33.130;-117.188;2022-12-05T10:16:56;2.35;;;1.38;;
37847;SDS011;23688;33.130;-117.188;2022-12-05T10:19:33;3.22;;;1.55;;
37847;SDS011;23688;33.130;-117.188;2022-12-05T10:22:13;2.28;;;1.40;;
37847;SDS011;23688;33.130;-117.188;2022-12-05T10:25:04;4.00;;;2.17;;
37847;SDS011;23688;33.130;-117.188;2022-12-05T10:27:40;4.32;;;1.90;;
37847;SDS011;23688;33.130;-117.188;2022-12-05T10:32:59;3.53;;;1.85;;
37847;SDS011;23688;33.130;-117.188;2022-12-05T10:38:05;6.30;;;2.63;;
37847;SDS011;23688;33.130;-117.188;2022-12-05T10:40:45;4.32;;;3.22;;
37847;SDS011;23688;33.130;-117.188;2022-12-05T10:43:19;7.40;;;3.97;;
37847;SDS011;23688;33.130;-117.188;2022-12-05T10:45:51;5.32;;;3.28;;
37847;SDS011;23688;33.130;-117.188;2022-12-05T10:48:18;10.27;;;4.03;;
37847;SDS011;23688;33.130;-117.188;2022-12-05T10:50:47;6.25;;;3.60;;
37847;SDS011;23688;33.130;-117.188;2022-12-05T10:53:23;6.38;;;3.28;;
37847;SDS011;23688;33.130;-117.188;2022-12-05T10:55:50;7.20;;;3.63;;
37847;SDS011;23688;33.130;-117.188;2022-12-05T10:58:22;6.43;;;3.70;;
37847;SDS011;23688;33.130;-117.188;2022-12-05T11:00:53;9.20;;;3.83;;
37847;SDS011;23688;33.130;-117.188;2022-12-05T11:03:24;13.52;;;4.47;;
37847;SDS011;23688;33.130;-117.188;2022-12-05T11:05:57;9.60;;;4.50;;
37847;SDS011;23688;33.130;-117.188;2022-12-05T11:08:31;6.93;;;4.55;;
37847;SDS011;23688;33.130;-117.188;2022-12-05T11:11:05;11.85;;;5.32;;
37847;SDS011;23688;33.130;-117.188;2022-12-05T11:13:53;9.82;;;6.00;;
37847;SDS011;23688;33.130;-117.188;2022-12-05T11:16:24;12.73;;;7.03;;
37847;SDS011;23688;33.130;-117.188;2022-12-05T11:21:53;11.55;;;4.60;;
37847;SDS011;23688;33.130;-117.188;2022-12-05T11:24:20;8.00;;;4.75;;
37847;SDS011;23688;33.130;-117.188;2022-12-05T11:26:51;9.48;;;5.72;;
37847;SDS011;23688;33.130;-117.188;2022-12-05T11:29:32;10.60;;;6.68;;
37847;SDS011;23688;33.130;-117.188;2022-12-05T11:32:03;10.73;;;5.30;;
37847;SDS011;23688;33.130;-117.188;2022-12-05T11:34:43;11.45;;;6.40;;
37847;SDS011;23688;33.130;-117.188;2022-12-05T11:38:03;8.43;;;5.35;;
37847;SDS011;23688;33.130;-117.188;2022-12-05T11:40:14;11.43;;;5.00;;
37847;SDS011;23688;33.130;-117.188;2022-12-05T11:42:53;10.68;;;5.72;;
37847;SDS011;23688;33.130;-117.188;2022-12-05T11:45:58;8.65;;;5.40;;
37847;SDS011;23688;33.130;-117.188;2022-12-05T11:48:58;9.48;;;6.10;;
37847;SDS011;23688;33.130;-117.188;2022-12-05T11:51:48;14.57;;;7.30;;
37847;SDS011;23688;33.130;-117.188;2022-12-05T12:05:41;13.90;;;6.45;;
37847;SDS011;23688;33.130;-117.188;2022-12-05T12:10:51;11.10;;;6.88;;
37847;SDS011;23688;33.130;-117.188;2022-12-05T12:13:38;11.48;;;6.93;;
37847;SDS011;23688;33.130;-117.188;2022-12-05T12:21:26;13.68;;;8.05;;
37847;SDS011;23688;33.130;-117.188;2022-12-05T12:29:37;12.45;;;7.38;;
37847;SDS011;23688;33.130;-117.188;2022-12-05T12:40:33;11.57;;;6.78;;
37847;SDS011;23688;33.130;-117.188;2022-12-05T12:45:46;12.93;;;7.28;;
37847;SDS011;23688;33.130;-117.188;2022-12-05T12:49:14;13.25;;;7.68;;
37847;SDS011;23688;33.130;-117.188;2022-12-05T12:51:14;13.75;;;7.88;;
37847;SDS011;23688;33.130;-117.188;2022-12-05T12:54:01;13.93;;;7.60;;
37847;SDS011;23688;33.130;-117.188;2022-12-05T13:01:58;12.13;;;7.63;;
37847;SDS011;23688;33.130;-117.188;2022-12-05T13:04:28;14.70;;;7.63;;
37847;SDS011;23688;33.130;-117.188;2022-12-05T13:09:56;13.40;;;7.85;;
37847;SDS011;23688;33.130;-117.188;2022-12-05T13:12:30;11.57;;;7.25;;
37847;SDS011;23688;33.130;-117.188;2022-12-05T13:15:06;14.95;;;8.05;;
37847;SDS011;23688;33.130;-117.188;2022-12-05T13:17:42;13.00;;;8.43;;
37847;SDS011;23688;33.130;-117.188;2022-12-05T13:20:16;15.35;;;8.05;;
37847;SDS011;23688;33.130;-117.188;2022-12-05T13:22:46;13.27;;;7.88;;
37847;SDS011;23688;33.130;-117.188;2022-12-05T13:25:17;13.82;;;9.05;;
37847;SDS011;23688;33.130;-117.188;2022-12-05T13:27:59;15.07;;;7.95;;
37847;SDS011;23688;33.130;-117.188;2022-12-05T13:30:28;15.18;;;7.75;;
37847;SDS011;23688;33.130;-117.188;2022-12-05T13:32:58;20.92;;;10.43;;
37847;SDS011;23688;33.130;-117.188;2022-12-05T13:38:26;15.32;;;9.60;;
37847;SDS011;23688;33.130;-117.188;2022-12-05T13:41:14;12.52;;;8.20;;
37847;SDS011;23688;33.130;-117.188;2022-12-05T13:43:59;12.98;;;8.50;;
37847;SDS011;23688;33.130;-117.188;2022-12-05T13:46:36;16.58;;;9.73;;
37847;SDS011;23688;33.130;-117.188;2022-12-05T13:50:07;15.05;;;8.73;;
37847;SDS011;23688;33.130;-117.188;2022-12-05T13:52:06;14.85;;;8.70;;
37847;SDS011;23688;33.130;-117.188;2022-12-05T13:54:42;18.83;;;9.32;;
37847;SDS011;23688;33.130;-117.188;2022-12-05T14:15:36;15.60;;;9.10;;
37847;SDS011;23688;33.130;-117.188;2022-12-05T14:18:25;16.70;;;8.07;;
37847;SDS011;23688;33.130;-117.188;2022-12-05T14:27:38;16.23;;;8.90;;
37847;SDS011;23688;33.130;-117.188;2022-12-05T14:30:26;20.33;;;8.98;;
37847;SDS011;23688;33.130;-117.188;2022-12-05T14:32:58;17.83;;;10.00;;
37847;SDS011;23688;33.130;-117.188;2022-12-05T14:35:45;17.77;;;9.77;;
37847;SDS011;23688;33.130;-117.188;2022-12-05T14:40:54;19.70;;;9.90;;
37847;SDS011;23688;33.130;-117.188;2022-12-05T14:43:35;12.85;;;9.30;;
37847;SDS011;23688;33.130;-117.188;2022-12-05T14:46:05;15.68;;;10.05;;
37847;SDS011;23688;33.130;-117.188;2022-12-05T14:48:40;16.67;;;10.20;;
37847;SDS011;23688;33.130;-117.188;2022-12-05T14:54:03;22.20;;;10.98;;
37847;SDS011;23688;33.130;-117.188;2022-12-05T14:56:52;24.35;;;13.57;;
37847;SDS011;23688;33.130;-117.188;2022-12-05T15:02:36;23.30;;;12.57;;
37847;SDS011;23688;33.130;-117.188;2022-12-05T15:05:16;20.85;;;12.35;;
37847;SDS011;23688;33.130;-117.188;2022-12-05T15:07:52;22.25;;;12.75;;
37847;SDS011;23688;33.130;-117.188;2022-12-05T15:20:53;17.35;;;9.63;;
37847;SDS011;23688;33.130;-117.188;2022-12-05T15:28:58;17.17;;;9.05;;
37847;SDS011;23688;33.130;-117.188;2022-12-05T15:34:17;19.67;;;9.18;;
37847;SDS011;23688;33.130;-117.188;2022-12-05T15:37:07;14.55;;;9.43;;
37847;SDS011;23688;33.130;-117.188;2022-12-05T15:42:35;13.85;;;7.35;;
37847;SDS011;23688;33.130;-117.188;2022-12-05T15:45:25;6.65;;;5.40;;
37847;SDS011;23688;33.130;-117.188;2022-12-05T15:47:53;11.15;;;4.32;;
37847;SDS011;23688;33.130;-117.188;2022-12-05T15:58:24;3.00;;;1.98;;
37847;SDS011;23688;33.130;-117.188;2022-12-05T16:01:17;4.57;;;2.20;;
37847;SDS011;23688;33.130;-117.188;2022-12-05T16:04:00;3.22;;;1.88;;
37847;SDS011;23688;33.130;-117.188;2022-12-05T16:06:50;3.25;;;2.00;;
37847;SDS011;23688;33.130;-117.188;2022-12-05T16:09:23;3.03;;;2.10;;
37847;SDS011;23688;33.130;-117.188;2022-12-05T16:12:03;6.32;;;2.08;;
37847;SDS011;23688;33.130;-117.188;2022-12-05T16:14:40;5.15;;;2.60;;
37847;SDS011;23688;33.130;-117.188;2022-12-05T16:17:09;3.92;;;2.50;;
37847;SDS011;23688;33.130;-117.188;2022-12-05T16:19:40;4.25;;;2.10;;
37847;SDS011;23688;33.130;-117.188;2022-12-05T16:24:47;2.75;;;1.85;;
37847;SDS011;23688;33.130;-117.188;2022-12-05T16:27:25;2.03;;;1.42;;
37847;SDS011;23688;33.130;-117.188;2022-12-05T16:30:16;2.33;;;1.20;;
37847;SDS011;23688;33.130;-117.188;2022-12-05T16:32:45;1.48;;;1.20;;
37847;SDS011;23688;33.130;-117.188;2022-12-05T16:38:09;3.60;;;1.98;;
37847;SDS011;23688;33.130;-117.188;2022-12-05T16:45:57;2.47;;;0.80;;
37847;SDS011;23688;33.130;-117.188;2022-12-05T16:48:37;1.85;;;0.82;;
37847;SDS011;23688;33.130;-117.188;2022-12-05T16:51:21;1.38;;;0.60;;
37847;SDS011;23688;33.130;-117.188;2022-12-05T16:53:54;0.68;;;0.60;;
37847;SDS011;23688;33.130;-117.188;2022-12-05T16:56:25;1.98;;;0.40;;
37847;SDS011;23688;33.130;-117.188;2022-12-05T16:58:56;0.75;;;0.38;;
37847;SDS011;23688;33.130;-117.188;2022-12-05T17:01:27;0.82;;;0.40;;
37847;SDS011;23688;33.130;-117.188;2022-12-05T17:03:53;2.00;;;0.40;;
37847;SDS011;23688;33.130;-117.188;2022-12-05T17:06:21;0.70;;;0.30;;
37847;SDS011;23688;33.130;-117.188;2022-12-05T17:08:49;0.60;;;0.40;;
37847;SDS011;23688;33.130;-117.188;2022-12-05T17:11:30;0.35;;;0.30;;
37847;SDS011;23688;33.130;-117.188;2022-12-05T17:13:59;0.85;;;0.43;;
37847;SDS011;23688;33.130;-117.188;2022-12-05T17:16:27;2.00;;;0.60;;
37847;SDS011;23688;33.130;-117.188;2022-12-05T17:18:53;0.60;;;0.30;;
37847;SDS011;23688;33.130;-117.188;2022-12-05T17:21:28;0.30;;;0.30;;
37847;SDS011;23688;33.130;-117.188;2022-12-05T17:26:24;1.05;;;0.70;;
37847;SDS011;23688;33.130;-117.188;2022-12-05T17:28:51;0.98;;;0.45;;
37847;SDS011;23688;33.130;-117.188;2022-12-05T17:31:19;0.22;;;0.20;;
37847;SDS011;23688;33.130;-117.188;2022-12-05T17:33:47;2.17;;;1.15;;
37847;SDS011;23688;33.130;-117.188;2022-12-05T17:36:15;0.22;;;0.22;;
37847;SDS011;23688;33.130;-117.188;2022-12-05T17:38:44;1.08;;;0.50;;
37847;SDS011;23688;33.130;-117.188;2022-12-05T17:41:15;1.15;;;0.40;;
37847;SDS011;23688;33.130;-117.188;2022-12-05T17:43:43;1.25;;;0.38;;
37847;SDS011;23688;33.130;-117.188;2022-12-05T17:46:14;0.90;;;0.43;;
37847;SDS011;23688;33.130;-117.188;2022-12-05T17:48:43;0.95;;;0.40;;
37847;SDS011;23688;33.130;-117.188;2022-12-05T17:51:10;1.50;;;0.50;;
37847;SDS011;23688;33.130;-117.188;2022-12-05T17:53:38;1.83;;;0.40;;
37847;SDS011;23688;33.130;-117.188;2022-12-05T17:56:05;0.60;;;0.20;;
37847;SDS011;23688;33.130;-117.188;2022-12-05T17:58:32;2.30;;;0.20;;
37847;SDS011;23688;33.130;-117.188;2022-12-05T18:00:59;0.75;;;0.20;;
37847;SDS011;23688;33.130;-117.188;2022-12-05T18:03:26;1.75;;;0.20;;